Time;durP1;ratioP1;P1;durP2;ratioP2;P2;SDS_P1;SDS_P2;PMS_P1;PMS_P2;Temp;Humidity;BMP_temperature;BMP_pressure;BME280_temperature;BME280_humidity;BME280_pressure;Samples;Min_cycle;Max_cycle;Signal;HPM_P1;HPM_P2
2022/06/09 00:01:04;;;;;;;;;;;;;;;22.46;79.20;96306.69;610570;232;62911;-69
2022/06/09 00:03:35;;;;;;;;;;;;;;;22.46;79.18;96306.69;610577;232;69064;-70
2022/06/09 00:06:04;;;;;;;;;;;;;;;22.45;79.16;96294.38;610509;232;64908;-70
2022/06/09 00:08:32;;;;;;;;;;;;;;;22.45;79.11;96304.30;610551;232;65196;-69
2022/06/09 00:11:01;;;;;;;;;;;;;;;22.45;79.12;96304.30;610496;232;66963;-69
2022/06/09 00:13:29;;;;;;;;;;;;;;;22.46;79.16;96306.69;610562;232;67075;-69
2022/06/09 00:15:57;;;;;;;;;;;;;;;22.46;79.18;96306.69;610582;232;65121;-69
2022/06/09 00:18:25;;;;;;;;;;;;;;;22.45;79.22;96305.08;610580;232;65145;-69
2022/06/09 00:20:52;;;;;;;;;;;;;;;22.46;79.20;96311.25;610559;232;64907;-69
2022/06/09 00:23:20;;;;;;;;;;;;;;;22.45;79.21;96315.80;610536;232;62744;-69
2022/06/09 00:25:48;;;;;;;;;;;;;;;22.45;79.15;96315.00;610554;232;67350;-69
2022/06/09 00:28:16;;;;;;;;;;;;;;;22.45;79.16;96315.00;610538;232;66990;-69
2022/06/09 00:30:43;;;;;;;;;;;;;;;22.45;79.16;96317.69;610616;232;64921;-69
2022/06/09 00:33:10;;;;;;;;;;;;;;;22.44;79.13;96324.92;610552;232;67213;-69
2022/06/09 00:35:38;;;;;;;;;;;;;;;22.45;79.20;96320.36;610535;232;64979;-69
2022/06/09 00:38:06;;;;;;;;;;;;;;;22.45;79.21;96325.72;610570;232;65232;-69
2022/06/09 00:40:33;;;;;;;;;;;;;;;22.45;79.21;96328.39;610556;232;67057;-69
2022/06/09 00:43:01;;;;;;;;;;;;;;;22.44;79.20;96322.25;610610;232;67014;-69
2022/06/09 00:45:31;;;;;;;;;;;;;;;22.45;79.21;96320.36;610532;232;65568;-69
2022/06/09 00:48:03;;;;;;;;;;;;;;;22.44;79.21;96319.58;610542;232;65032;-69
2022/06/09 00:50:31;;;;;;;;;;;;;;;22.44;79.26;96318.78;610557;232;66835;-69
2022/06/09 00:53:00;;;;;;;;;;;;;;;22.45;79.28;96317.69;610567;232;62742;-69
2022/06/09 00:55:29;;;;;;;;;;;;;;;22.44;79.26;96313.43;610570;232;64582;-69
2022/06/09 00:57:57;;;;;;;;;;;;;;;22.44;79.26;96302.72;610576;232;64543;-69
2022/06/09 01:00:26;;;;;;;;;;;;;;;22.44;79.23;96300.05;610557;232;63145;-69
2022/06/09 01:02:55;;;;;;;;;;;;;;;22.44;79.29;96302.72;610474;232;64969;-70
2022/06/09 01:05:24;;;;;;;;;;;;;;;22.44;79.21;96303.51;610539;232;65262;-70
2022/06/09 01:07:53;;;;;;;;;;;;;;;22.43;79.17;96311.85;610558;232;62990;-70
2022/06/09 01:10:20;;;;;;;;;;;;;;;22.43;79.23;96307.29;610251;232;65030;-70
2022/06/09 01:12:49;;;;;;;;;;;;;;;22.43;79.20;96315.32;609828;232;64985;-70
2022/06/09 01:15:18;;;;;;;;;;;;;;;22.43;79.20;96311.85;609777;232;64927;-69
2022/06/09 01:18:02;;;;;;;;;;;;;;;22.43;79.20;96312.64;609821;232;67220;-69
2022/06/09 01:20:43;;;;;;;;;;;;;;;22.43;79.27;96307.29;609841;232;66948;-71
2022/06/09 01:23:21;;;;;;;;;;;;;;;22.43;79.29;96306.50;609809;232;64890;-71
2022/06/09 01:25:51;;;;;;;;;;;;;;;22.42;79.31;96304.89;609233;232;66759;-69
2022/06/09 01:28:26;;;;;;;;;;;;;;;22.43;79.33;96306.50;609324;232;67017;-69
2022/06/09 01:30:57;;;;;;;;;;;;;;;22.43;79.35;96303.82;609810;232;63672;-70
2022/06/09 01:33:26;;;;;;;;;;;;;;;22.43;79.34;96315.32;609795;232;67218;-70
2022/06/09 01:35:55;;;;;;;;;;;;;;;22.42;79.38;96321.75;609720;232;67009;-70
2022/06/09 01:38:23;;;;;;;;;;;;;;;22.42;79.38;96319.06;609839;232;65208;-70
2022/06/09 01:40:50;;;;;;;;;;;;;;;22.42;79.37;96320.95;609855;232;67111;-70
2022/06/09 01:43:18;;;;;;;;;;;;;;;22.42;79.36;96315.60;609813;232;66871;-70
2022/06/09 01:46:02;;;;;;;;;;;;;;;22.42;79.42;96315.60;609832;232;64883;-70
2022/06/09 01:48:30;;;;;;;;;;;;;;;22.42;79.44;96320.95;609670;232;64901;-69
2022/06/09 01:50:59;;;;;;;;;;;;;;;22.41;79.48;96308.67;609843;232;66923;-69
2022/06/09 01:53:32;;;;;;;;;;;;;;;22.41;79.46;96320.17;609815;232;65077;-69
2022/06/09 01:56:00;;;;;;;;;;;;;;;22.41;79.46;96314.81;608635;232;64707;-69
2022/06/09 01:58:29;;;;;;;;;;;;;;;22.41;79.47;96308.67;609776;232;65116;-69
2022/06/09 02:00:59;;;;;;;;;;;;;;;22.42;79.43;96310.25;609804;232;65685;-69
2022/06/09 02:03:28;;;;;;;;;;;;;;;22.41;79.42;96314.81;609799;232;64860;-70
2022/06/09 02:06:02;;;;;;;;;;;;;;;22.40;79.39;96302.53;609710;232;66903;-69
2022/06/09 02:08:29;;;;;;;;;;;;;;;22.42;79.36;96307.57;609727;232;64918;-70
2022/06/09 02:10:57;;;;;;;;;;;;;;;22.41;79.36;96309.46;610205;232;67109;-71
2022/06/09 02:13:31;;;;;;;;;;;;;;;22.41;79.37;96300.64;610230;232;66830;-71
2022/06/09 02:15:57;;;;;;;;;;;;;;;22.40;79.38;96305.20;610359;231;65073;-71
2022/06/09 02:18:26;;;;;;;;;;;;;;;22.41;79.37;96304.11;610557;232;65039;-70
2022/06/09 02:20:55;;;;;;;;;;;;;;;22.40;79.37;96307.89;610517;232;67368;-70
2022/06/09 02:23:22;;;;;;;;;;;;;;;22.40;79.33;96307.89;610576;232;67468;-71
2022/06/09 02:25:50;;;;;;;;;;;;;;;22.40;79.35;96310.56;610522;232;64969;-71
2022/06/09 02:28:17;;;;;;;;;;;;;;;22.40;79.38;96302.53;610532;232;64928;-71
2022/06/09 02:30:45;;;;;;;;;;;;;;;22.41;79.35;96314.03;610539;232;62968;-70
2022/06/09 02:33:12;;;;;;;;;;;;;;;22.40;79.37;96321.27;610550;232;66996;-71
2022/06/09 02:35:41;;;;;;;;;;;;;;;22.41;79.38;96322.05;610589;232;65256;-71
2022/06/09 02:38:09;;;;;;;;;;;;;;;22.41;79.37;96324.73;610565;232;64968;-71
2022/06/09 02:40:37;;;;;;;;;;;;;;;22.41;79.38;96330.09;610509;232;64820;-71
2022/06/09 02:43:04;;;;;;;;;;;;;;;22.41;79.38;96328.20;610531;232;64861;-70
2022/06/09 02:45:33;;;;;;;;;;;;;;;22.41;79.40;96332.77;610506;232;64933;-71
2022/06/09 02:48:01;;;;;;;;;;;;;;;22.41;79.46;96324.73;610601;232;67085;-71
2022/06/09 02:50:29;;;;;;;;;;;;;;;22.39;79.46;96328.48;610577;232;66870;-71
2022/06/09 02:52:59;;;;;;;;;;;;;;;22.40;79.44;96329.30;610433;232;47632;-71
2022/06/09 02:55:27;;;;;;;;;;;;;;;22.39;79.42;96333.84;610550;232;67271;-71
2022/06/09 02:57:55;;;;;;;;;;;;;;;22.40;79.35;96334.66;610559;232;64845;-71
2022/06/09 03:00:22;;;;;;;;;;;;;;;22.40;79.40;96329.30;610595;232;63586;-71
2022/06/09 03:02:57;;;;;;;;;;;;;;;22.40;79.37;96337.33;610646;232;65434;-71
2022/06/09 03:05:25;;;;;;;;;;;;;;;22.39;79.37;96339.19;610587;232;64589;-71
2022/06/09 03:07:53;;;;;;;;;;;;;;;22.39;79.40;96344.55;610535;232;64960;-71
2022/06/09 03:10:20;;;;;;;;;;;;;;;22.39;79.37;96335.73;610549;232;64385;-71
2022/06/09 03:12:48;;;;;;;;;;;;;;;22.38;79.40;96336.83;610602;232;64418;-71
2022/06/09 03:15:17;;;;;;;;;;;;;;;22.38;79.39;96337.61;610621;232;64914;-71
2022/06/09 03:17:46;;;;;;;;;;;;;;;22.39;79.43;96335.73;610599;232;66770;-70
2022/06/09 03:20:15;;;;;;;;;;;;;;;22.39;79.45;96335.73;610564;232;66834;-71
2022/06/09 03:22:42;;;;;;;;;;;;;;;22.38;79.46;96334.94;610581;232;62783;-71
2022/06/09 03:25:10;;;;;;;;;;;;;;;22.38;79.47;96337.61;610568;232;64546;-71
2022/06/09 03:27:37;;;;;;;;;;;;;;;22.38;79.46;96337.61;610633;232;64557;-71
2022/06/09 03:30:05;;;;;;;;;;;;;;;22.37;79.44;96341.39;610556;232;62761;-71
2022/06/09 03:32:33;;;;;;;;;;;;;;;22.38;79.47;96337.61;610546;232;67299;-71
2022/06/09 03:35:00;;;;;;;;;;;;;;;22.38;79.45;96337.61;610518;232;67207;-71
2022/06/09 03:37:28;;;;;;;;;;;;;;;22.38;79.44;96334.94;610555;232;64867;-71
2022/06/09 03:39:55;;;;;;;;;;;;;;;22.38;79.44;96331.47;610623;232;67162;-71
2022/06/09 03:42:23;;;;;;;;;;;;;;;22.38;79.41;96331.47;610583;232;66929;-71
2022/06/09 03:44:50;;;;;;;;;;;;;;;22.38;79.44;96332.27;610530;232;64843;-71
2022/06/09 03:47:18;;;;;;;;;;;;;;;22.38;79.45;96326.91;610521;232;67187;-70
2022/06/09 03:49:45;;;;;;;;;;;;;;;22.38;79.40;96331.47;610561;232;64639;-71
2022/06/09 03:52:13;;;;;;;;;;;;;;;22.38;79.41;96324.23;610584;232;62768;-71
2022/06/09 03:54:40;;;;;;;;;;;;;;;22.37;79.42;96325.33;610599;232;64548;-70
2022/06/09 03:57:08;;;;;;;;;;;;;;;22.39;79.37;96327.70;610554;232;64777;-71
2022/06/09 03:59:35;;;;;;;;;;;;;;;22.37;79.37;96322.66;610539;232;62884;-71
2022/06/09 04:02:03;;;;;;;;;;;;;;;22.38;79.34;96321.55;610510;232;65183;-71
2022/06/09 04:04:30;;;;;;;;;;;;;;;22.38;79.38;96321.55;610562;232;64890;-71
2022/06/09 04:06:58;;;;;;;;;;;;;;;22.37;79.39;96314.63;610589;232;62833;-71
2022/06/09 04:09:25;;;;;;;;;;;;;;;22.37;79.45;96325.33;610495;232;67040;-70
2022/06/09 04:11:53;;;;;;;;;;;;;;;22.38;79.41;96321.55;610562;232;66916;-71
2022/06/09 04:14:20;;;;;;;;;;;;;;;22.37;79.42;96328.01;610526;232;62746;-71
2022/06/09 04:16:48;;;;;;;;;;;;;;;22.37;79.41;96319.16;610586;232;64935;-71
2022/06/09 04:19:17;;;;;;;;;;;;;;;22.37;79.43;96313.80;610593;232;64813;-71
2022/06/09 04:21:44;;;;;;;;;;;;;;;22.36;79.43;96318.38;610557;232;64933;-71
2022/06/09 04:24:12;;;;;;;;;;;;;;;22.37;79.43;96316.48;610525;232;67092;-70
2022/06/09 04:26:40;;;;;;;;;;;;;;;22.38;79.45;96310.06;610552;232;66849;-71
2022/06/09 04:29:11;;;;;;;;;;;;;;;22.37;79.43;96308.45;610527;232;62679;-71
2022/06/09 04:31:41;;;;;;;;;;;;;;;22.36;79.47;96310.34;610569;232;64864;-71
2022/06/09 04:34:09;;;;;;;;;;;;;;;22.36;79.48;96309.55;610567;232;67078;-71
2022/06/09 04:36:37;;;;;;;;;;;;;;;22.36;79.47;96307.66;610545;232;65088;-69
2022/06/09 04:39:05;;;;;;;;;;;;;;;22.36;79.50;96307.66;610533;232;68070;-69
2022/06/09 04:41:33;;;;;;;;;;;;;;;22.35;79.54;96303.41;610554;232;66868;-69
2022/06/09 04:44:01;;;;;;;;;;;;;;;22.36;79.58;96307.66;610559;232;65052;-69
2022/06/09 04:46:28;;;;;;;;;;;;;;;22.36;79.57;96301.52;610572;232;67041;-69
2022/06/09 04:48:56;;;;;;;;;;;;;;;22.35;79.59;96300.73;610550;232;67301;-69
2022/06/09 04:51:25;;;;;;;;;;;;;;;22.35;79.61;96295.38;610562;232;65072;-69
2022/06/09 04:53:53;;;;;;;;;;;;;;;22.35;79.69;96298.05;610504;232;67347;-69
2022/06/09 04:56:22;;;;;;;;;;;;;;;22.35;79.67;96300.73;610556;232;67013;-69
2022/06/09 04:58:51;;;;;;;;;;;;;;;22.34;79.65;96293.80;610599;232;65050;-69
2022/06/09 05:01:20;;;;;;;;;;;;;;;22.35;79.76;96294.59;610514;232;67228;-69
2022/06/09 05:03:50;;;;;;;;;;;;;;;22.34;79.77;96296.48;610462;231;66976;-69
2022/06/09 05:06:19;;;;;;;;;;;;;;;22.35;79.75;96294.59;610533;232;65231;-69
2022/06/09 05:08:47;;;;;;;;;;;;;;;22.35;79.75;96303.41;610549;232;64834;-69
2022/06/09 05:11:14;;;;;;;;;;;;;;;22.35;79.71;96299.95;609983;232;64764;-69
2022/06/09 05:13:42;;;;;;;;;;;;;;;22.34;79.72;96301.83;609819;232;62940;-69
2022/06/09 05:16:09;;;;;;;;;;;;;;;22.34;79.74;96301.83;609827;232;67262;-69
2022/06/09 05:18:40;;;;;;;;;;;;;;;22.34;79.73;96304.52;609841;232;65012;-69
2022/06/09 05:21:09;;;;;;;;;;;;;;;22.35;79.72;96305.30;609802;232;65558;-69
2022/06/09 05:23:37;;;;;;;;;;;;;;;22.35;79.76;96299.95;609831;232;67278;-69
2022/06/09 05:26:06;;;;;;;;;;;;;;;22.33;79.74;96300.23;609835;232;66894;-69
2022/06/09 05:28:34;;;;;;;;;;;;;;;22.33;79.77;96292.20;609667;232;65038;-69
2022/06/09 05:31:02;;;;;;;;;;;;;;;22.34;79.73;96304.52;609839;232;67179;-69
2022/06/09 05:33:29;;;;;;;;;;;;;;;22.34;79.77;96299.16;609806;232;64816;-69
2022/06/09 05:35:57;;;;;;;;;;;;;;;22.34;79.76;96296.48;609846;232;63107;-69
2022/06/09 05:46:44;;;;;;;;;;;;;;;22.34;79.87;96301.02;609091;232;67300;-69
2022/06/09 05:49:12;;;;;;;;;;;;;;;22.33;79.84;96297.55;609846;232;67188;-69
2022/06/09 05:51:39;;;;;;;;;;;;;;;22.32;79.83;96290.63;609816;232;64939;-69
2022/06/09 05:54:07;;;;;;;;;;;;;;;22.32;79.87;96290.63;609879;232;67272;-69
2022/06/09 05:56:35;;;;;;;;;;;;;;;22.32;79.90;96282.59;609836;232;66787;-69
2022/06/09 05:59:03;;;;;;;;;;;;;;;22.32;79.91;96287.16;609592;232;65124;-69
2022/06/09 06:01:30;;;;;;;;;;;;;;;22.32;80.03;96282.59;609166;232;66904;-71
2022/06/09 06:03:58;;;;;;;;;;;;;;;22.32;80.02;96287.95;609760;232;67172;-69
2022/06/09 06:06:35;;;;;;;;;;;;;;;22.33;80.14;96278.03;609862;232;62958;-69
2022/06/09 06:09:04;;;;;;;;;;;;;;;22.33;80.36;96292.20;609634;232;67476;-69
2022/06/09 06:11:31;;;;;;;;;;;;;;;22.33;80.35;96286.06;609562;231;64827;-69
2022/06/09 06:13:59;;;;;;;;;;;;;;;22.32;79.71;96284.48;610744;232;62740;-68
2022/06/09 06:16:26;;;;;;;;;;;;;;;22.32;79.55;96282.59;610825;232;67215;-68
2022/06/09 06:18:54;;;;;;;;;;;;;;;22.32;79.97;96279.91;610959;232;67022;-67
2022/06/09 06:21:22;;;;;;;;;;;;;;;22.33;79.93;96284.17;610879;232;65031;-66
2022/06/09 06:23:50;;;;;;;;;;;;;;;22.35;80.08;96281.20;610847;232;66860;-66
2022/06/09 06:26:17;;;;;;;;;;;;;;;22.35;80.11;96278.53;610858;232;67273;-67
2022/06/09 06:28:45;;;;;;;;;;;;;;;22.36;79.45;96280.89;610903;232;65115;-69
2022/06/09 06:31:13;;;;;;;;;;;;;;;22.37;79.89;96282.50;610780;232;68413;-69
2022/06/09 06:33:40;;;;;;;;;;;;;;;22.37;79.71;96271.79;610950;232;67099;-66
2022/06/09 06:36:08;;;;;;;;;;;;;;;22.37;79.98;96279.82;610893;232;65051;-67
2022/06/09 06:38:36;;;;;;;;;;;;;;;22.38;79.85;96283.28;610770;232;67175;-67
2022/06/09 06:41:05;;;;;;;;;;;;;;;22.37;79.82;96285.17;610889;232;67254;-67
2022/06/09 06:43:33;;;;;;;;;;;;;;;22.37;79.92;96277.14;610893;232;62949;-70
2022/06/09 06:46:02;;;;;;;;;;;;;;;22.38;77.60;96273.37;610923;232;67066;-70
2022/06/09 06:48:30;;;;;;;;;;;;;;;22.39;78.52;96261.55;610757;232;64816;-70
2022/06/09 06:50:58;;;;;;;;;;;;;;;22.40;79.27;96267.73;610503;232;62977;-70
2022/06/09 06:53:26;;;;;;;;;;;;;;;22.40;79.60;96259.70;610542;232;67601;-69
2022/06/09 06:55:53;;;;;;;;;;;;;;;22.41;79.89;96265.84;610924;232;67201;-70
2022/06/09 06:58:21;;;;;;;;;;;;;;;22.40;79.98;96267.73;610885;232;64900;-71
2022/06/09 07:00:48;;;;;;;;;;;;;;;22.41;80.01;96265.84;610834;232;64773;-70
2022/06/09 07:03:16;;;;;;;;;;;;;;;22.42;80.04;96264.73;610844;232;64738;-70
2022/06/09 07:05:43;;;;;;;;;;;;;;;22.41;80.01;96263.16;610899;232;62802;-69
2022/06/09 07:08:15;;;;;;;;;;;;;;;22.42;80.08;96270.88;610931;232;64908;-69
2022/06/09 07:10:40;;;;;;;;;;;;;;;22.42;80.26;96272.77;611207;232;66290;-67
2022/06/09 07:13:07;;;;;;;;;;;;;;;22.42;80.24;96262.06;611619;232;65067;-70
2022/06/09 07:15:35;;;;;;;;;;;;;;;22.42;80.17;96267.41;611615;232;66780;-70
2022/06/09 07:18:02;;;;;;;;;;;;;;;22.44;76.82;96266.02;611652;232;66859;-67
2022/06/09 07:20:31;;;;;;;;;;;;;;;22.43;75.45;96267.13;611532;232;65032;-70
2022/06/09 07:22:58;;;;;;;;;;;;;;;22.45;77.33;96256.10;611557;232;67025;-69
2022/06/09 07:25:26;;;;;;;;;;;;;;;22.45;77.70;96261.45;611653;232;66797;-69
2022/06/09 07:27:55;;;;;;;;;;;;;;;22.45;78.74;96262.25;611606;232;65053;-67
2022/06/09 07:30:23;;;;;;;;;;;;;;;22.44;78.27;96254.53;611620;232;67731;-69
2022/06/09 07:32:51;;;;;;;;;;;;;;;22.45;79.09;96254.22;611629;232;64917;-69
2022/06/09 07:35:19;;;;;;;;;;;;;;;22.46;79.27;96260.39;611462;232;63061;-66
2022/06/09 07:37:47;;;;;;;;;;;;;;;22.46;79.28;96260.39;611662;232;67480;-72
2022/06/09 07:40:15;;;;;;;;;;;;;;;22.45;79.23;96259.57;611604;232;66847;-69
2022/06/09 07:42:43;;;;;;;;;;;;;;;22.45;79.30;96259.57;611499;232;62730;-69
2022/06/09 07:45:12;;;;;;;;;;;;;;;22.46;79.32;96257.70;611524;232;67172;-69
2022/06/09 07:47:39;;;;;;;;;;;;;;;22.44;76.40;96249.96;611600;232;66761;-70
2022/06/09 07:50:08;;;;;;;;;;;;;;;22.45;77.74;96246.18;611650;232;65029;-69
2022/06/09 07:52:36;;;;;;;;;;;;;;;22.46;78.30;96252.35;611648;232;67279;-71
2022/06/09 07:55:03;;;;;;;;;;;;;;;22.49;75.27;96243.72;611573;232;67110;-70
2022/06/09 07:57:31;;;;;;;;;;;;;;;22.49;76.03;96243.72;611596;232;65776;-70
2022/06/09 07:59:59;;;;;;;;;;;;;;;22.49;76.93;96238.37;611615;232;67046;-70
2022/06/09 08:02:27;;;;;;;;;;;;;;;22.48;77.41;96244.80;611605;232;66964;-69
2022/06/09 08:04:58;;;;;;;;;;;;;;;22.48;78.18;96240.26;611401;232;45972;-70
2022/06/09 08:07:26;;;;;;;;;;;;;;;22.47;78.61;96233.30;611602;232;64939;-71
2022/06/09 08:09:54;;;;;;;;;;;;;;;22.48;78.91;96239.44;611324;232;67151;-70
2022/06/09 08:12:22;;;;;;;;;;;;;;;22.48;79.18;96237.58;610912;232;65051;-70
2022/06/09 08:14:49;;;;;;;;;;;;;;;22.48;79.37;96239.44;610906;232;67217;-70
2022/06/09 08:17:17;;;;;;;;;;;;;;;22.48;79.55;96244.80;610894;232;64746;-71
2022/06/09 08:19:46;;;;;;;;;;;;;;;22.48;79.69;96245.61;610927;232;62711;-70
2022/06/09 08:22:13;;;;;;;;;;;;;;;22.48;79.73;96250.15;610905;232;65744;-71
2022/06/09 08:24:41;;;;;;;;;;;;;;;22.48;79.86;96245.61;610904;232;66521;-69
2022/06/09 08:27:09;;;;;;;;;;;;;;;22.48;79.91;96239.44;610900;232;65046;-68
2022/06/09 08:29:37;;;;;;;;;;;;;;;22.49;80.00;96243.72;610985;232;66894;-69
2022/06/09 08:32:05;;;;;;;;;;;;;;;22.49;80.04;96241.05;610839;232;67093;-68
2022/06/09 08:34:33;;;;;;;;;;;;;;;22.49;80.08;96233.02;610935;232;65094;-68
2022/06/09 08:37:01;;;;;;;;;;;;;;;22.48;80.13;96232.22;610893;232;66808;-68
2022/06/09 08:39:28;;;;;;;;;;;;;;;22.49;80.18;96222.30;610779;232;66829;-68
2022/06/09 08:42:10;;;;;;;;;;;;;;;22.49;80.27;96224.98;610955;232;65023;-68
2022/06/09 08:44:38;;;;;;;;;;;;;;;22.49;80.29;96227.66;610905;232;66886;-69
2022/06/09 08:47:10;;;;;;;;;;;;;;;22.49;80.33;96223.09;610786;232;66632;-69
2022/06/09 08:49:43;;;;;;;;;;;;;;;22.49;80.37;96228.45;610876;232;64966;-69
2022/06/09 08:52:15;;;;;;;;;;;;;;;22.49;80.42;96219.63;610443;231;64479;-69
2022/06/09 08:54:43;;;;;;;;;;;;;;;22.50;80.48;96215.84;610788;232;66657;-69
2022/06/09 08:57:12;;;;;;;;;;;;;;;22.49;80.58;96214.27;610901;232;62999;-70
2022/06/09 08:59:40;;;;;;;;;;;;;;;22.50;80.57;96213.16;610790;231;64865;-70
2022/06/09 09:02:12;;;;;;;;;;;;;;;22.50;80.62;96216.62;610773;232;66828;-68
2022/06/09 09:04:42;;;;;;;;;;;;;;;22.49;80.57;96217.73;610788;232;64883;-69
2022/06/09 09:07:25;;;;;;;;;;;;;;;22.49;80.64;96214.27;610797;232;66835;-69
2022/06/09 09:09:50;;;;;;;;;;;;;;;22.50;80.67;96207.81;610840;232;66728;-70
2022/06/09 09:12:21;;;;;;;;;;;;;;;22.50;80.70;96210.48;610308;232;64832;-69
2022/06/09 09:15:00;;;;;;;;;;;;;;;22.49;80.74;96201.67;600617;234;64612;-70
2022/06/09 09:17:29;;;;;;;;;;;;;;;22.50;80.80;96202.45;609310;232;64395;-69
2022/06/09 09:20:03;;;;;;;;;;;;;;;22.50;80.76;96200.56;607019;232;65225;-69
2022/06/09 09:22:38;;;;;;;;;;;;;;;22.50;80.81;96205.13;608418;232;64713;-68
2022/06/09 09:25:07;;;;;;;;;;;;;;;22.50;80.80;96192.53;609112;232;64315;-68
2022/06/09 09:27:37;;;;;;;;;;;;;;;22.50;80.92;96189.86;608895;232;62812;-68
2022/06/09 09:30:06;;;;;;;;;;;;;;;22.49;80.93;96188.28;600701;232;64651;-68
2022/06/09 09:32:37;;;;;;;;;;;;;;;22.50;80.95;96191.75;610125;229;64697;-72
2022/06/09 09:35:13;;;;;;;;;;;;;;;22.48;77.18;96186.71;611561;232;64953;-70
2022/06/09 09:37:44;;;;;;;;;;;;;;;22.52;76.59;96181.53;611625;230;64594;-70
2022/06/09 09:40:12;;;;;;;;;;;;;;;22.52;77.44;96190.36;611628;232;64328;-71
2022/06/09 09:42:42;;;;;;;;;;;;;;;22.52;78.60;96182.33;611620;232;62842;-70
2022/06/09 09:45:11;;;;;;;;;;;;;;;22.51;79.14;96202.17;611593;232;66899;-69
2022/06/09 09:47:44;;;;;;;;;;;;;;;22.52;79.26;96203.74;611573;232;66812;-69
2022/06/09 09:50:18;;;;;;;;;;;;;;;22.51;79.59;96202.17;611450;232;64891;-66
2022/06/09 09:52:47;;;;;;;;;;;;;;;22.54;78.89;96198.89;611717;232;68994;-65
2022/06/09 09:55:31;;;;;;;;;;;;;;;22.56;75.21;96198.57;611445;232;64752;-67
2022/06/09 09:58:19;;;;;;;;;;;;;;;22.56;76.41;96202.06;611704;232;64928;-67
2022/06/09 10:00:47;;;;;;;;;;;;;;;22.55;77.80;96203.14;611735;230;64641;-67
2022/06/09 10:08:49;;;;;;;;;;;;;;;22.52;80.08;96202.95;611714;232;64645;-69
2022/06/09 10:14:04;;;;;;;;;;;;;;;22.52;80.34;96202.95;611691;232;63128;-69
2022/06/09 10:16:33;;;;;;;;;;;;;;;22.52;80.44;96192.25;611754;232;67100;-69
2022/06/09 10:19:02;;;;;;;;;;;;;;;22.51;80.51;96199.49;611731;232;66601;-69
2022/06/09 10:21:31;;;;;;;;;;;;;;;22.52;80.53;96202.95;611703;232;65185;-68
2022/06/09 10:24:00;;;;;;;;;;;;;;;22.52;80.56;96195.71;612389;229;64532;-70
2022/06/09 10:26:35;;;;;;;;;;;;;;;22.52;80.60;96193.03;611072;229;65404;-67
2022/06/09 10:29:17;;;;;;;;;;;;;;;22.51;80.61;96183.42;611657;232;64960;-69
2022/06/09 10:31:58;;;;;;;;;;;;;;;22.51;80.67;96193.34;611680;232;66774;-69
2022/06/09 10:34:42;;;;;;;;;;;;;;;22.51;80.69;96196.81;611747;232;71991;-70
2022/06/09 10:37:27;;;;;;;;;;;;;;;22.51;80.63;96196.03;611780;229;65092;-70
2022/06/09 10:40:05;;;;;;;;;;;;;;;22.51;80.44;96196.03;611637;232;66590;-70
2022/06/09 10:42:39;;;;;;;;;;;;;;;22.50;80.34;96186.39;611723;232;66580;-67
2022/06/09 10:45:20;;;;;;;;;;;;;;;22.50;80.22;96191.75;611762;232;65026;-68
2022/06/09 10:56:32;;;;;;;;;;;;;;;22.50;80.17;96178.36;611711;232;64503;-69
2022/06/09 10:59:19;;;;;;;;;;;;;;;22.50;80.12;96173.00;611784;229;66317;-70
2022/06/09 11:01:47;;;;;;;;;;;;;;;22.50;80.12;96173.80;611708;229;65101;-70
2022/06/09 11:04:16;;;;;;;;;;;;;;;22.51;80.09;96174.61;611727;232;66653;-67
2022/06/09 11:06:46;;;;;;;;;;;;;;;22.50;80.08;96173.00;611724;232;67217;-67
2022/06/09 11:09:15;;;;;;;;;;;;;;;22.51;80.07;96174.61;611623;232;62883;-67
2022/06/09 11:11:44;;;;;;;;;;;;;;;22.51;80.16;96171.93;612333;229;64769;-69
2022/06/09 11:14:26;;;;;;;;;;;;;;;22.51;80.11;96174.61;611713;229;66839;-68
2022/06/09 11:17:01;;;;;;;;;;;;;;;22.51;80.12;96170.04;611583;232;65521;-69
2022/06/09 11:19:30;;;;;;;;;;;;;;;22.50;80.11;96168.44;608035;232;67012;-68
2022/06/09 11:21:59;;;;;;;;;;;;;;;22.51;80.17;96163.90;611655;229;64060;-69
2022/06/09 11:24:34;;;;;;;;;;;;;;;22.52;80.15;96168.15;603484;233;62274;-69
2022/06/09 11:27:18;;;;;;;;;;;;;;;22.52;80.19;96152.87;605020;232;66292;-68
2022/06/09 11:29:48;;;;;;;;;;;;;;;22.52;80.23;96154.77;611407;232;64462;-69
2022/06/09 11:32:17;;;;;;;;;;;;;;;22.52;80.18;96138.70;611736;232;65027;-69
2022/06/09 11:34:52;;;;;;;;;;;;;;;22.51;80.22;96143.27;611723;232;66984;-69
2022/06/09 11:37:33;;;;;;;;;;;;;;;22.52;80.19;96144.05;611768;232;66475;-71
2022/06/09 11:40:09;;;;;;;;;;;;;;;22.51;80.16;96143.27;611863;232;62938;-68
2022/06/09 11:42:41;;;;;;;;;;;;;;;22.51;80.15;96143.27;611670;232;66756;-68
2022/06/09 11:45:19;;;;;;;;;;;;;;;22.52;80.15;96142.16;611760;232;66586;-68
2022/06/09 11:47:47;;;;;;;;;;;;;;;22.52;80.17;96138.70;611698;232;63068;-68
2022/06/09 11:50:16;;;;;;;;;;;;;;;22.52;80.16;96138.70;611743;232;64558;-67
2022/06/09 11:52:46;;;;;;;;;;;;;;;22.51;80.18;96132.55;611693;232;65521;-68
2022/06/09 11:58:36;;;;;;;;;;;;;;;22.53;80.14;96132.23;611710;232;64737;-67
2022/06/09 12:01:18;;;;;;;;;;;;;;;22.53;80.14;96142.95;611505;232;66733;-68
2022/06/09 12:03:50;;;;;;;;;;;;;;;22.52;80.09;96136.02;611729;232;66139;-67
2022/06/09 12:06:28;;;;;;;;;;;;;;;22.52;79.73;96130.66;610072;232;66773;-67
2022/06/09 12:08:57;;;;;;;;;;;;;;;22.52;77.30;96127.98;611080;230;64839;-67
2022/06/09 12:11:25;;;;;;;;;;;;;;;22.53;78.73;96127.66;610833;232;63166;-68
2022/06/09 12:14:10;;;;;;;;;;;;;;;22.54;79.32;96120.45;611087;232;64587;-67
2022/06/09 12:16:37;;;;;;;;;;;;;;;22.53;79.70;96124.20;611678;232;64233;-68
2022/06/09 12:19:15;;;;;;;;;;;;;;;22.54;79.78;96117.77;611671;232;62748;-69
2022/06/09 12:21:44;;;;;;;;;;;;;;;22.52;79.88;96115.39;611765;232;64660;-68
2022/06/09 12:24:17;;;;;;;;;;;;;;;22.54;79.81;96112.42;611697;232;64831;-69
2022/06/09 12:26:48;;;;;;;;;;;;;;;22.53;79.80;96105.45;611704;232;62739;-68
2022/06/09 12:29:22;;;;;;;;;;;;;;;22.54;79.87;96104.39;611756;232;64596;-66
2022/06/09 12:32:09;;;;;;;;;;;;;;;22.53;79.92;96092.86;611759;232;66662;-67
2022/06/09 12:34:42;;;;;;;;;;;;;;;22.53;79.93;96102.78;611709;232;62945;-69
2022/06/09 12:37:22;;;;;;;;;;;;;;;22.54;79.97;96096.35;611764;232;64774;-69
2022/06/09 12:39:51;;;;;;;;;;;;;;;22.56;75.65;96092.28;611723;230;66981;-71
2022/06/09 12:42:20;;;;;;;;;;;;;;;22.62;78.03;96098.30;611779;232;63694;-68
2022/06/09 12:44:51;;;;;;;;;;;;;;;22.63;78.12;96104.45;611710;232;64376;-69
2022/06/09 12:47:25;;;;;;;;;;;;;;;22.63;79.12;96104.45;611215;232;67853;-69
2022/06/09 12:49:51;;;;;;;;;;;;;;;22.63;78.92;96102.55;611481;232;65053;-66
2022/06/09 12:52:20;;;;;;;;;;;;;;;22.64;78.86;96104.13;611748;232;65331;-68
2022/06/09 12:54:48;;;;;;;;;;;;;;;22.65;78.91;96099.59;611710;232;66882;-68
2022/06/09 12:57:20;;;;;;;;;;;;;;;22.66;78.98;96109.20;611680;232;64679;-68
2022/06/09 12:59:50;;;;;;;;;;;;;;;22.67;79.02;96110.77;611727;232;64596;-67
2022/06/09 13:02:19;;;;;;;;;;;;;;;22.66;79.10;96109.20;611611;232;67261;-71
2022/06/09 13:04:54;;;;;;;;;;;;;;;22.67;79.06;96114.27;611753;232;64993;-71
2022/06/09 13:07:23;;;;;;;;;;;;;;;22.67;79.07;96108.91;611734;232;64598;-71
2022/06/09 13:10:00;;;;;;;;;;;;;;;22.67;79.08;96114.27;611519;232;64910;-70
2022/06/09 13:15:15;;;;;;;;;;;;;;;22.68;79.13;96105.13;611562;232;64864;-70
2022/06/09 13:17:42;;;;;;;;;;;;;;;22.68;79.05;96105.13;611480;232;64919;-70
2022/06/09 13:20:14;;;;;;;;;;;;;;;22.68;79.01;96107.80;611593;232;62907;-70
2022/06/09 13:22:43;;;;;;;;;;;;;;;22.69;78.96;96111.27;611574;232;68020;-70
2022/06/09 13:25:15;;;;;;;;;;;;;;;22.68;78.92;96099.77;611671;232;64926;-69
2022/06/09 13:27:45;;;;;;;;;;;;;;;22.69;78.87;96095.98;611662;232;62800;-70
2022/06/09 13:30:32;;;;;;;;;;;;;;;22.68;78.82;96083.70;611589;232;65171;-70
2022/06/09 13:33:01;;;;;;;;;;;;;;;22.68;78.83;96074.88;611641;232;66614;-69